sensor_id;sensor_type;location;lat;lon;timestamp;temperature;humidity
17687;DHT22;8962;52.538;13.266;2022-10-03T00:00:32;11.00;99.90
17687;DHT22;8962;52.538;13.266;2022-10-03T00:03:28;10.90;99.90
17687;DHT22;8962;52.538;13.266;2022-10-03T00:06:06;10.90;99.90
17687;DHT22;8962;52.538;13.266;2022-10-03T00:08:52;10.90;99.90
17687;DHT22;8962;52.538;13.266;2022-10-03T00:11:29;10.90;99.90
17687;DHT22;8962;52.538;13.266;2022-10-03T00:14:02;11.00;99.90
17687;DHT22;8962;52.538;13.266;2022-10-03T00:16:40;11.00;99.90
17687;DHT22;8962;52.538;13.266;2022-10-03T00:19:19;11.10;99.90
17687;DHT22;8962;52.538;13.266;2022-10-03T00:21:56;11.10;99.90
17687;DHT22;8962;52.538;13.266;2022-10-03T00:24:33;11.20;99.90
17687;DHT22;8962;52.538;13.266;2022-10-03T00:27:08;11.20;99.90
17687;DHT22;8962;52.538;13.266;2022-10-03T00:29:49;11.30;99.90
17687;DHT22;8962;52.538;13.266;2022-10-03T00:32:35;11.30;99.90
17687;DHT22;8962;52.538;13.266;2022-10-03T00:35:19;11.30;99.90
17687;DHT22;8962;52.538;13.266;2022-10-03T00:38:00;11.40;99.90
17687;DHT22;8962;52.538;13.266;2022-10-03T00:47:12;11.40;99.90
17687;DHT22;8962;52.538;13.266;2022-10-03T00:53:08;11.50;99.90
17687;DHT22;8962;52.538;13.266;2022-10-03T00:55:48;11.40;99.90
17687;DHT22;8962;52.538;13.266;2022-10-03T00:58:39;11.40;99.90
17687;DHT22;8962;52.538;13.266;2022-10-03T01:01:35;11.40;99.90
17687;DHT22;8962;52.538;13.266;2022-10-03T01:04:13;11.30;99.90
17687;DHT22;8962;52.538;13.266;2022-10-03T01:06:45;11.30;99.90
17687;DHT22;8962;52.538;13.266;2022-10-03T01:09:38;11.30;99.90
17687;DHT22;8962;52.538;13.266;2022-10-03T01:12:24;11.20;99.90
17687;DHT22;8962;52.538;13.266;2022-10-03T01:15:09;11.20;99.90
17687;DHT22;8962;52.538;13.266;2022-10-03T01:17:48;11.20;99.90
17687;DHT22;8962;52.538;13.266;2022-10-03T01:20:31;11.20;99.90
17687;DHT22;8962;52.538;13.266;2022-10-03T01:23:22;11.20;99.90
17687;DHT22;8962;52.538;13.266;2022-10-03T01:26:06;11.30;99.90
17687;DHT22;8962;52.538;13.266;2022-10-03T01:28:46;11.30;99.90
17687;DHT22;8962;52.538;13.266;2022-10-03T01:31:42;11.40;99.90
17687;DHT22;8962;52.538;13.266;2022-10-03T01:34:17;11.40;99.90
17687;DHT22;8962;52.538;13.266;2022-10-03T01:36:56;11.40;99.90
17687;DHT22;8962;52.538;13.266;2022-10-03T01:39:31;11.40;99.90
17687;DHT22;8962;52.538;13.266;2022-10-03T01:42:04;11.40;99.90
17687;DHT22;8962;52.538;13.266;2022-10-03T01:44:39;11.50;99.90
17687;DHT22;8962;52.538;13.266;2022-10-03T01:47:18;11.50;99.90
17687;DHT22;8962;52.538;13.266;2022-10-03T01:49:54;11.50;99.90
17687;DHT22;8962;52.538;13.266;2022-10-03T01:52:26;11.50;99.90
17687;DHT22;8962;52.538;13.266;2022-10-03T01:55:07;11.50;99.90
17687;DHT22;8962;52.538;13.266;2022-10-03T01:57:43;11.50;99.90
17687;DHT22;8962;52.538;13.266;2022-10-03T02:00:14;11.60;99.90
17687;DHT22;8962;52.538;13.266;2022-10-03T02:02:45;11.60;99.90
17687;DHT22;8962;52.538;13.266;2022-10-03T02:05:21;11.70;99.90
17687;DHT22;8962;52.538;13.266;2022-10-03T02:07:55;11.70;99.90
17687;DHT22;8962;52.538;13.266;2022-10-03T02:10:33;11.70;99.90
17687;DHT22;8962;52.538;13.266;2022-10-03T02:13:11;11.80;99.90
17687;DHT22;8962;52.538;13.266;2022-10-03T02:15:54;11.80;99.90
17687;DHT22;8962;52.538;13.266;2022-10-03T02:18:28;11.80;99.90
17687;DHT22;8962;52.538;13.266;2022-10-03T02:21:06;11.90;99.90
17687;DHT22;8962;52.538;13.266;2022-10-03T02:23:39;11.90;99.90
17687;DHT22;8962;52.538;13.266;2022-10-03T02:26:26;11.90;99.90
17687;DHT22;8962;52.538;13.266;2022-10-03T02:29:26;11.90;99.90
17687;DHT22;8962;52.538;13.266;2022-10-03T02:32:20;11.90;99.90
17687;DHT22;8962;52.538;13.266;2022-10-03T02:35:12;11.90;99.90
17687;DHT22;8962;52.538;13.266;2022-10-03T02:38:12;11.90;99.90
17687;DHT22;8962;52.538;13.266;2022-10-03T02:41:15;11.90;99.90
17687;DHT22;8962;52.538;13.266;2022-10-03T02:44:20;11.90;99.90
17687;DHT22;8962;52.538;13.266;2022-10-03T02:59:31;11.90;99.90
17687;DHT22;8962;52.538;13.266;2022-10-03T03:02:33;11.80;99.90
17687;DHT22;8962;52.538;13.266;2022-10-03T03:05:22;11.80;99.90
17687;DHT22;8962;52.538;13.266;2022-10-03T03:08:07;11.80;99.90
17687;DHT22;8962;52.538;13.266;2022-10-03T03:11:05;11.80;99.90
17687;DHT22;8962;52.538;13.266;2022-10-03T03:16:48;11.80;99.90
17687;DHT22;8962;52.538;13.266;2022-10-03T03:19:45;11.70;99.90
17687;DHT22;8962;52.538;13.266;2022-10-03T03:22:38;11.70;99.90
17687;DHT22;8962;52.538;13.266;2022-10-03T03:25:22;11.60;99.90
17687;DHT22;8962;52.538;13.266;2022-10-03T03:28:01;11.70;99.90
17687;DHT22;8962;52.538;13.266;2022-10-03T03:30:38;11.70;99.90
17687;DHT22;8962;52.538;13.266;2022-10-03T03:33:14;11.70;99.90
17687;DHT22;8962;52.538;13.266;2022-10-03T03:35:55;11.70;99.90
17687;DHT22;8962;52.538;13.266;2022-10-03T03:38:30;11.70;99.90
17687;DHT22;8962;52.538;13.266;2022-10-03T03:41:19;11.70;99.90
17687;DHT22;8962;52.538;13.266;2022-10-03T03:44:02;11.70;99.90
17687;DHT22;8962;52.538;13.266;2022-10-03T03:46:42;11.80;99.90
17687;DHT22;8962;52.538;13.266;2022-10-03T03:49:28;11.70;99.90
17687;DHT22;8962;52.538;13.266;2022-10-03T03:52:08;11.70;99.90
17687;DHT22;8962;52.538;13.266;2022-10-03T03:54:58;11.70;99.90
17687;DHT22;8962;52.538;13.266;2022-10-03T03:57:54;11.70;99.90
17687;DHT22;8962;52.538;13.266;2022-10-03T04:00:34;11.70;99.90
17687;DHT22;8962;52.538;13.266;2022-10-03T04:03:19;11.70;99.90
17687;DHT22;8962;52.538;13.266;2022-10-03T04:06:09;11.80;99.90
17687;DHT22;8962;52.538;13.266;2022-10-03T04:09:02;11.70;99.90
17687;DHT22;8962;52.538;13.266;2022-10-03T04:11:45;11.70;99.90
17687;DHT22;8962;52.538;13.266;2022-10-03T04:14:48;11.70;99.90
17687;DHT22;8962;52.538;13.266;2022-10-03T04:17:45;11.70;99.90
17687;DHT22;8962;52.538;13.266;2022-10-03T04:21:01;11.70;99.90
17687;DHT22;8962;52.538;13.266;2022-10-03T04:23:49;11.70;99.90
17687;DHT22;8962;52.538;13.266;2022-10-03T04:26:45;11.80;99.90
17687;DHT22;8962;52.538;13.266;2022-10-03T04:32:28;11.70;99.90
17687;DHT22;8962;52.538;13.266;2022-10-03T04:35:15;11.70;99.90
17687;DHT22;8962;52.538;13.266;2022-10-03T04:37:53;11.70;99.90
17687;DHT22;8962;52.538;13.266;2022-10-03T04:40:32;11.80;99.90
17687;DHT22;8962;52.538;13.266;2022-10-03T04:43:10;11.80;99.90
17687;DHT22;8962;52.538;13.266;2022-10-03T04:45:52;11.70;99.90
17687;DHT22;8962;52.538;13.266;2022-10-03T04:48:29;11.80;99.90
17687;DHT22;8962;52.538;13.266;2022-10-03T04:51:05;11.70;99.90
17687;DHT22;8962;52.538;13.266;2022-10-03T04:53:42;11.70;99.90
17687;DHT22;8962;52.538;13.266;2022-10-03T04:56:22;11.70;99.90
17687;DHT22;8962;52.538;13.266;2022-10-03T04:59:00;11.70;99.90
17687;DHT22;8962;52.538;13.266;2022-10-03T05:04:18;11.70;99.90
17687;DHT22;8962;52.538;13.266;2022-10-03T05:07:00;11.70;99.90
17687;DHT22;8962;52.538;13.266;2022-10-03T05:09:36;11.70;99.90
17687;DHT22;8962;52.538;13.266;2022-10-03T05:12:13;11.70;99.90
17687;DHT22;8962;52.538;13.266;2022-10-03T05:15:04;11.70;99.90
17687;DHT22;8962;52.538;13.266;2022-10-03T05:17:43;11.70;99.90
17687;DHT22;8962;52.538;13.266;2022-10-03T05:20:22;11.70;99.90
17687;DHT22;8962;52.538;13.266;2022-10-03T05:22:57;11.70;99.90
17687;DHT22;8962;52.538;13.266;2022-10-03T05:25:42;11.70;99.90
17687;DHT22;8962;52.538;13.266;2022-10-03T05:28:17;11.70;99.90
17687;DHT22;8962;52.538;13.266;2022-10-03T05:30:52;11.70;99.90
17687;DHT22;8962;52.538;13.266;2022-10-03T05:33:32;11.70;99.90
17687;DHT22;8962;52.538;13.266;2022-10-03T05:41:53;11.70;99.90
17687;DHT22;8962;52.538;13.266;2022-10-03T05:44:39;11.70;99.90
17687;DHT22;8962;52.538;13.266;2022-10-03T05:47:27;11.70;99.90
17687;DHT22;8962;52.538;13.266;2022-10-03T05:50:46;11.70;99.90
17687;DHT22;8962;52.538;13.266;2022-10-03T05:56:21;11.80;99.90
17687;DHT22;8962;52.538;13.266;2022-10-03T06:02:23;11.80;99.90
17687;DHT22;8962;52.538;13.266;2022-10-03T06:05:22;11.80;99.90
17687;DHT22;8962;52.538;13.266;2022-10-03T06:10:53;11.90;99.90
17687;DHT22;8962;52.538;13.266;2022-10-03T06:13:40;11.90;99.90
17687;DHT22;8962;52.538;13.266;2022-10-03T06:16:23;11.90;99.90
17687;DHT22;8962;52.538;13.266;2022-10-03T06:19:06;11.90;99.90
17687;DHT22;8962;52.538;13.266;2022-10-03T06:27:57;12.00;99.90
17687;DHT22;8962;52.538;13.266;2022-10-03T06:30:50;12.00;99.90
17687;DHT22;8962;52.538;13.266;2022-10-03T06:37:07;12.20;99.90
17687;DHT22;8962;52.538;13.266;2022-10-03T06:40:01;12.10;99.90
17687;DHT22;8962;52.538;13.266;2022-10-03T06:42:58;12.10;99.90
17687;DHT22;8962;52.538;13.266;2022-10-03T06:45:49;12.10;99.90
17687;DHT22;8962;52.538;13.266;2022-10-03T06:55:14;12.10;99.90
17687;DHT22;8962;52.538;13.266;2022-10-03T06:58:12;12.10;99.90
17687;DHT22;8962;52.538;13.266;2022-10-03T07:00:54;12.00;99.90
17687;DHT22;8962;52.538;13.266;2022-10-03T07:06:50;12.00;99.90
17687;DHT22;8962;52.538;13.266;2022-10-03T07:12:57;12.40;99.90
17687;DHT22;8962;52.538;13.266;2022-10-03T07:15:52;12.50;99.90
17687;DHT22;8962;52.538;13.266;2022-10-03T07:27:54;12.70;99.90
17687;DHT22;8962;52.538;13.266;2022-10-03T07:30:24;12.70;99.90
17687;DHT22;8962;52.538;13.266;2022-10-03T07:33:23;12.80;99.90
17687;DHT22;8962;52.538;13.266;2022-10-03T07:36:22;12.80;99.90
17687;DHT22;8962;52.538;13.266;2022-10-03T07:45:41;12.90;99.90
17687;DHT22;8962;52.538;13.266;2022-10-03T07:48:41;13.20;99.90
17687;DHT22;8962;52.538;13.266;2022-10-03T07:51:30;13.30;99.90
17687;DHT22;8962;52.538;13.266;2022-10-03T07:57:29;13.20;99.90
17687;DHT22;8962;52.538;13.266;2022-10-03T08:00:19;13.30;99.90
17687;DHT22;8962;52.538;13.266;2022-10-03T08:03:33;13.30;99.90
17687;DHT22;8962;52.538;13.266;2022-10-03T08:06:15;13.40;99.90
17687;DHT22;8962;52.538;13.266;2022-10-03T08:09:01;13.50;99.90
17687;DHT22;8962;52.538;13.266;2022-10-03T08:12:04;13.40;99.90
17687;DHT22;8962;52.538;13.266;2022-10-03T08:14:44;13.40;99.90
17687;DHT22;8962;52.538;13.266;2022-10-03T08:20:40;13.60;99.90
17687;DHT22;8962;52.538;13.266;2022-10-03T08:23:36;14.00;99.90
17687;DHT22;8962;52.538;13.266;2022-10-03T08:26:16;14.00;99.90
17687;DHT22;8962;52.538;13.266;2022-10-03T08:44:44;14.00;99.90
17687;DHT22;8962;52.538;13.266;2022-10-03T08:50:49;14.00;99.90
17687;DHT22;8962;52.538;13.266;2022-10-03T08:53:44;14.10;99.90
17687;DHT22;8962;52.538;13.266;2022-10-03T08:56:15;14.40;99.90
17687;DHT22;8962;52.538;13.266;2022-10-03T08:59:17;14.60;99.90
17687;DHT22;8962;52.538;13.266;2022-10-03T09:02:19;14.60;99.90
17687;DHT22;8962;52.538;13.266;2022-10-03T09:05:30;14.50;99.90
17687;DHT22;8962;52.538;13.266;2022-10-03T09:08:40;14.50;99.90
17687;DHT22;8962;52.538;13.266;2022-10-03T09:14:32;14.40;99.90
17687;DHT22;8962;52.538;13.266;2022-10-03T09:29:58;15.10;99.90
17687;DHT22;8962;52.538;13.266;2022-10-03T09:32:57;15.10;99.90
17687;DHT22;8962;52.538;13.266;2022-10-03T09:39:01;15.10;99.90
17687;DHT22;8962;52.538;13.266;2022-10-03T09:41:58;15.10;99.90
17687;DHT22;8962;52.538;13.266;2022-10-03T09:45:13;15.10;99.90
17687;DHT22;8962;52.538;13.266;2022-10-03T09:48:08;15.30;99.90
17687;DHT22;8962;52.538;13.266;2022-10-03T09:54:22;15.10;99.90
17687;DHT22;8962;52.538;13.266;2022-10-03T09:57:34;14.90;99.90
17687;DHT22;8962;52.538;13.266;2022-10-03T10:00:19;14.90;99.90
17687;DHT22;8962;52.538;13.266;2022-10-03T10:03:17;14.80;99.90
17687;DHT22;8962;52.538;13.266;2022-10-03T10:06:19;14.90;99.90
17687;DHT22;8962;52.538;13.266;2022-10-03T10:09:21;15.10;99.90
17687;DHT22;8962;52.538;13.266;2022-10-03T10:18:39;15.00;99.90
17687;DHT22;8962;52.538;13.266;2022-10-03T10:21:36;15.20;99.90
17687;DHT22;8962;52.538;13.266;2022-10-03T10:30:21;15.70;99.90
17687;DHT22;8962;52.538;13.266;2022-10-03T10:39:47;15.80;99.90
17687;DHT22;8962;52.538;13.266;2022-10-03T10:46:21;16.50;99.90
17687;DHT22;8962;52.538;13.266;2022-10-03T10:52:40;16.20;99.90
17687;DHT22;8962;52.538;13.266;2022-10-03T11:21:37;15.90;99.90
17687;DHT22;8962;52.538;13.266;2022-10-03T11:24:49;16.00;99.90
17687;DHT22;8962;52.538;13.266;2022-10-03T11:31:07;15.90;99.90
17687;DHT22;8962;52.538;13.266;2022-10-03T11:34:26;15.70;99.90
17687;DHT22;8962;52.538;13.266;2022-10-03T11:37:08;15.50;99.90
17687;DHT22;8962;52.538;13.266;2022-10-03T11:39:55;15.40;99.90
17687;DHT22;8962;52.538;13.266;2022-10-03T11:42:48;15.30;99.90
17687;DHT22;8962;52.538;13.266;2022-10-03T11:45:31;15.40;99.90
17687;DHT22;8962;52.538;13.266;2022-10-03T11:48:29;15.80;99.90
17687;DHT22;8962;52.538;13.266;2022-10-03T11:51:09;16.30;99.90
17687;DHT22;8962;52.538;13.266;2022-10-03T11:53:54;16.30;99.90
17687;DHT22;8962;52.538;13.266;2022-10-03T11:56:34;16.10;99.90
17687;DHT22;8962;52.538;13.266;2022-10-03T11:59:29;15.90;99.90
17687;DHT22;8962;52.538;13.266;2022-10-03T12:02:14;15.80;99.90
17687;DHT22;8962;52.538;13.266;2022-10-03T12:04:51;15.70;99.90
17687;DHT22;8962;52.538;13.266;2022-10-03T12:07:37;15.60;99.90
17687;DHT22;8962;52.538;13.266;2022-10-03T12:10:35;15.90;99.90
17687;DHT22;8962;52.538;13.266;2022-10-03T12:13:08;16.70;99.90
17687;DHT22;8962;52.538;13.266;2022-10-03T12:15:44;16.80;99.90
17687;DHT22;8962;52.538;13.266;2022-10-03T12:18:15;16.80;99.90
17687;DHT22;8962;52.538;13.266;2022-10-03T12:21:07;18.00;99.90
17687;DHT22;8962;52.538;13.266;2022-10-03T12:24:00;18.70;99.90
17687;DHT22;8962;52.538;13.266;2022-10-03T12:26:40;17.60;99.90
17687;DHT22;8962;52.538;13.266;2022-10-03T12:29:20;16.90;99.90
17687;DHT22;8962;52.538;13.266;2022-10-03T12:32:08;16.50;99.90
17687;DHT22;8962;52.538;13.266;2022-10-03T12:34:47;17.10;99.90
17687;DHT22;8962;52.538;13.266;2022-10-03T12:37:58;18.30;99.90
17687;DHT22;8962;52.538;13.266;2022-10-03T12:40:41;18.20;99.90
17687;DHT22;8962;52.538;13.266;2022-10-03T12:43:26;17.70;99.90
17687;DHT22;8962;52.538;13.266;2022-10-03T12:45:59;17.50;99.90
17687;DHT22;8962;52.538;13.266;2022-10-03T12:48:39;17.20;99.90
17687;DHT22;8962;52.538;13.266;2022-10-03T12:51:21;16.90;99.90
17687;DHT22;8962;52.538;13.266;2022-10-03T12:54:04;16.70;99.90
17687;DHT22;8962;52.538;13.266;2022-10-03T12:56:41;16.60;99.90
17687;DHT22;8962;52.538;13.266;2022-10-03T12:59:25;16.60;99.90
17687;DHT22;8962;52.538;13.266;2022-10-03T13:02:20;16.80;99.90
17687;DHT22;8962;52.538;13.266;2022-10-03T13:05:17;18.10;99.90
17687;DHT22;8962;52.538;13.266;2022-10-03T13:07:52;19.60;99.90
17687;DHT22;8962;52.538;13.266;2022-10-03T13:10:26;21.50;99.90
17687;DHT22;8962;52.538;13.266;2022-10-03T13:13:09;21.50;99.90
17687;DHT22;8962;52.538;13.266;2022-10-03T13:18:55;21.30;99.90
17687;DHT22;8962;52.538;13.266;2022-10-03T13:21:46;20.10;99.90
17687;DHT22;8962;52.538;13.266;2022-10-03T13:24:25;19.30;99.90
17687;DHT22;8962;52.538;13.266;2022-10-03T13:27:11;18.40;99.90
17687;DHT22;8962;52.538;13.266;2022-10-03T13:29:43;18.00;99.90
17687;DHT22;8962;52.538;13.266;2022-10-03T13:32:17;18.00;99.90
17687;DHT22;8962;52.538;13.266;2022-10-03T13:35:14;18.00;99.90
17687;DHT22;8962;52.538;13.266;2022-10-03T13:41:21;17.80;99.90
17687;DHT22;8962;52.538;13.266;2022-10-03T13:43:56;17.30;99.90
17687;DHT22;8962;52.538;13.266;2022-10-03T13:46:30;17.70;99.90
17687;DHT22;8962;52.538;13.266;2022-10-03T13:49:02;19.50;99.90
17687;DHT22;8962;52.538;13.266;2022-10-03T13:51:40;19.70;99.90
17687;DHT22;8962;52.538;13.266;2022-10-03T13:54:16;18.50;99.90
17687;DHT22;8962;52.538;13.266;2022-10-03T13:56:51;18.10;99.90
17687;DHT22;8962;52.538;13.266;2022-10-03T13:59:38;17.40;99.90
17687;DHT22;8962;52.538;13.266;2022-10-03T14:02:33;16.70;99.90
17687;DHT22;8962;52.538;13.266;2022-10-03T14:05:24;16.40;99.90
17687;DHT22;8962;52.538;13.266;2022-10-03T14:08:12;16.20;99.90
17687;DHT22;8962;52.538;13.266;2022-10-03T14:11:04;16.90;99.90
17687;DHT22;8962;52.538;13.266;2022-10-03T14:13:41;18.90;99.90
17687;DHT22;8962;52.538;13.266;2022-10-03T14:16:15;19.10;99.90
17687;DHT22;8962;52.538;13.266;2022-10-03T14:18:57;18.60;99.90
17687;DHT22;8962;52.538;13.266;2022-10-03T14:21:42;18.20;99.90
17687;DHT22;8962;52.538;13.266;2022-10-03T14:27:16;17.60;99.90
17687;DHT22;8962;52.538;13.266;2022-10-03T14:29:57;17.50;99.90
17687;DHT22;8962;52.538;13.266;2022-10-03T14:32:38;17.60;99.90
17687;DHT22;8962;52.538;13.266;2022-10-03T14:35:23;17.40;99.90
17687;DHT22;8962;52.538;13.266;2022-10-03T14:37:57;17.10;99.90
17687;DHT22;8962;52.538;13.266;2022-10-03T14:40:32;16.90;99.90
17687;DHT22;8962;52.538;13.266;2022-10-03T14:43:12;16.90;99.90
17687;DHT22;8962;52.538;13.266;2022-10-03T14:45:44;16.90;99.90
17687;DHT22;8962;52.538;13.266;2022-10-03T14:48:15;16.80;99.90
17687;DHT22;8962;52.538;13.266;2022-10-03T14:50:45;16.60;99.90
17687;DHT22;8962;52.538;13.266;2022-10-03T14:53:17;16.50;99.90
17687;DHT22;8962;52.538;13.266;2022-10-03T14:55:55;16.30;99.90
17687;DHT22;8962;52.538;13.266;2022-10-03T14:58:26;16.20;99.90
17687;DHT22;8962;52.538;13.266;2022-10-03T15:01:03;16.10;99.90
17687;DHT22;8962;52.538;13.266;2022-10-03T15:03:37;16.10;99.90
17687;DHT22;8962;52.538;13.266;2022-10-03T15:06:30;16.10;99.90
17687;DHT22;8962;52.538;13.266;2022-10-03T15:09:00;16.10;99.90
17687;DHT22;8962;52.538;13.266;2022-10-03T15:11:33;16.10;99.90
17687;DHT22;8962;52.538;13.266;2022-10-03T15:14:04;16.10;99.90
17687;DHT22;8962;52.538;13.266;2022-10-03T15:16:34;16.20;99.90
17687;DHT22;8962;52.538;13.266;2022-10-03T15:19:08;16.30;99.90
17687;DHT22;8962;52.538;13.266;2022-10-03T15:21:43;16.30;99.90
17687;DHT22;8962;52.538;13.266;2022-10-03T15:24:18;16.40;99.90
17687;DHT22;8962;52.538;13.266;2022-10-03T15:26:50;16.30;99.90
17687;DHT22;8962;52.538;13.266;2022-10-03T15:29:19;16.20;99.90
17687;DHT22;8962;52.538;13.266;2022-10-03T15:31:49;16.10;99.90
17687;DHT22;8962;52.538;13.266;2022-10-03T15:34:20;16.10;99.90
17687;DHT22;8962;52.538;13.266;2022-10-03T15:36:55;16.00;99.90
17687;DHT22;8962;52.538;13.266;2022-10-03T15:39:29;16.10;99.90
17687;DHT22;8962;52.538;13.266;2022-10-03T15:42:01;16.00;99.90
17687;DHT22;8962;52.538;13.266;2022-10-03T15:44:33;16.00;99.90
17687;DHT22;8962;52.538;13.266;2022-10-03T15:47:06;15.90;99.90
17687;DHT22;8962;52.538;13.266;2022-10-03T15:49:37;15.90;99.90
17687;DHT22;8962;52.538;13.266;2022-10-03T15:52:14;15.80;99.90
17687;DHT22;8962;52.538;13.266;2022-10-03T15:54:46;15.80;99.90
17687;DHT22;8962;52.538;13.266;2022-10-03T15:57:18;15.80;99.90
17687;DHT22;8962;52.538;13.266;2022-10-03T15:59:52;15.70;99.90
17687;DHT22;8962;52.538;13.266;2022-10-03T16:02:25;15.60;99.90
17687;DHT22;8962;52.538;13.266;2022-10-03T16:04:54;15.60;99.90
17687;DHT22;8962;52.538;13.266;2022-10-03T16:07:29;15.60;99.90
17687;DHT22;8962;52.538;13.266;2022-10-03T16:10:14;15.60;99.90
17687;DHT22;8962;52.538;13.266;2022-10-03T16:12:55;15.60;99.90
17687;DHT22;8962;52.538;13.266;2022-10-03T16:15:29;15.50;99.90
17687;DHT22;8962;52.538;13.266;2022-10-03T16:18:01;15.50;99.90
17687;DHT22;8962;52.538;13.266;2022-10-03T16:20:34;15.50;99.90
17687;DHT22;8962;52.538;13.266;2022-10-03T16:23:14;15.40;99.90
17687;DHT22;8962;52.538;13.266;2022-10-03T16:25:45;15.40;99.90
17687;DHT22;8962;52.538;13.266;2022-10-03T16:28:17;15.30;99.90
17687;DHT22;8962;52.538;13.266;2022-10-03T16:30:50;15.30;99.90
17687;DHT22;8962;52.538;13.266;2022-10-03T16:33:24;15.20;99.90
17687;DHT22;8962;52.538;13.266;2022-10-03T16:35:53;15.20;99.90
17687;DHT22;8962;52.538;13.266;2022-10-03T16:38:25;15.20;99.90
17687;DHT22;8962;52.538;13.266;2022-10-03T16:40:56;15.10;99.90
17687;DHT22;8962;52.538;13.266;2022-10-03T16:43:24;15.10;99.90
17687;DHT22;8962;52.538;13.266;2022-10-03T16:45:53;15.10;99.90
17687;DHT22;8962;52.538;13.266;2022-10-03T16:48:23;15.00;99.90
17687;DHT22;8962;52.538;13.266;2022-10-03T16:51:16;15.00;99.90
17687;DHT22;8962;52.538;13.266;2022-10-03T16:53:46;14.90;99.90
17687;DHT22;8962;52.538;13.266;2022-10-03T16:56:16;14.90;99.90
17687;DHT22;8962;52.538;13.266;2022-10-03T16:58:50;14.80;99.90
17687;DHT22;8962;52.538;13.266;2022-10-03T17:01:26;14.80;99.90
17687;DHT22;8962;52.538;13.266;2022-10-03T17:04:02;14.70;99.90
17687;DHT22;8962;52.538;13.266;2022-10-03T17:06:36;14.70;99.90
17687;DHT22;8962;52.538;13.266;2022-10-03T17:09:15;14.70;99.90
17687;DHT22;8962;52.538;13.266;2022-10-03T17:11:46;14.60;99.90
17687;DHT22;8962;52.538;13.266;2022-10-03T17:14:17;14.50;99.90
17687;DHT22;8962;52.538;13.266;2022-10-03T17:16:51;14.50;99.90
17687;DHT22;8962;52.538;13.266;2022-10-03T17:19:27;14.50;99.90
17687;DHT22;8962;52.538;13.266;2022-10-03T17:22:00;14.50;99.90
17687;DHT22;8962;52.538;13.266;2022-10-03T17:24:37;14.40;99.90
17687;DHT22;8962;52.538;13.266;2022-10-03T17:27:13;14.40;99.90
17687;DHT22;8962;52.538;13.266;2022-10-03T17:29:45;14.40;99.90
17687;DHT22;8962;52.538;13.266;2022-10-03T17:32:19;14.30;99.90
17687;DHT22;8962;52.538;13.266;2022-10-03T17:34:50;14.20;99.90
17687;DHT22;8962;52.538;13.266;2022-10-03T17:37:51;14.20;99.90
17687;DHT22;8962;52.538;13.266;2022-10-03T17:40:31;14.20;99.90
17687;DHT22;8962;52.538;13.266;2022-10-03T17:43:13;14.10;99.90
17687;DHT22;8962;52.538;13.266;2022-10-03T17:45:46;14.10;99.90
17687;DHT22;8962;52.538;13.266;2022-10-03T17:48:18;14.10;99.90
17687;DHT22;8962;52.538;13.266;2022-10-03T17:50:57;14.10;99.90
17687;DHT22;8962;52.538;13.266;2022-10-03T17:53:29;14.10;99.90
17687;DHT22;8962;52.538;13.266;2022-10-03T17:56:02;14.00;99.90
17687;DHT22;8962;52.538;13.266;2022-10-03T17:58:31;13.90;99.90
17687;DHT22;8962;52.538;13.266;2022-10-03T18:01:05;13.80;99.90
17687;DHT22;8962;52.538;13.266;2022-10-03T18:03:39;13.70;99.90
17687;DHT22;8962;52.538;13.266;2022-10-03T18:06:47;13.60;99.90
17687;DHT22;8962;52.538;13.266;2022-10-03T18:09:26;13.60;99.90
17687;DHT22;8962;52.538;13.266;2022-10-03T18:12:03;13.50;99.90
17687;DHT22;8962;52.538;13.266;2022-10-03T18:14:41;13.50;99.90
17687;DHT22;8962;52.538;13.266;2022-10-03T18:17:15;13.40;99.90
17687;DHT22;8962;52.538;13.266;2022-10-03T18:19:53;13.30;99.90
17687;DHT22;8962;52.538;13.266;2022-10-03T18:22:27;13.30;99.90
17687;DHT22;8962;52.538;13.266;2022-10-03T18:24:58;13.30;99.90
17687;DHT22;8962;52.538;13.266;2022-10-03T18:28:08;13.20;99.90
17687;DHT22;8962;52.538;13.266;2022-10-03T18:30:43;13.20;99.90
17687;DHT22;8962;52.538;13.266;2022-10-03T18:33:15;13.30;99.90
17687;DHT22;8962;52.538;13.266;2022-10-03T18:35:46;13.30;99.90
17687;DHT22;8962;52.538;13.266;2022-10-03T18:38:18;13.20;99.90
17687;DHT22;8962;52.538;13.266;2022-10-03T18:40:49;13.20;99.90
17687;DHT22;8962;52.538;13.266;2022-10-03T18:43:28;13.10;99.90
17687;DHT22;8962;52.538;13.266;2022-10-03T18:46:14;13.20;99.90
17687;DHT22;8962;52.538;13.266;2022-10-03T18:49:01;13.20;99.90
17687;DHT22;8962;52.538;13.266;2022-10-03T18:51:34;13.10;99.90
17687;DHT22;8962;52.538;13.266;2022-10-03T18:54:06;13.10;99.90
17687;DHT22;8962;52.538;13.266;2022-10-03T18:56:33;13.10;99.90
17687;DHT22;8962;52.538;13.266;2022-10-03T18:59:11;13.10;99.90
17687;DHT22;8962;52.538;13.266;2022-10-03T19:01:49;13.10;99.90
17687;DHT22;8962;52.538;13.266;2022-10-03T19:04:32;13.10;99.90
17687;DHT22;8962;52.538;13.266;2022-10-03T19:07:10;13.20;99.90
17687;DHT22;8962;52.538;13.266;2022-10-03T19:10:13;13.20;99.90
17687;DHT22;8962;52.538;13.266;2022-10-03T19:12:49;13.20;99.90
17687;DHT22;8962;52.538;13.266;2022-10-03T19:15:21;13.30;99.90
17687;DHT22;8962;52.538;13.266;2022-10-03T19:18:07;13.30;99.90
17687;DHT22;8962;52.538;13.266;2022-10-03T19:20:37;13.30;99.90
17687;DHT22;8962;52.538;13.266;2022-10-03T19:23:09;13.20;99.90
17687;DHT22;8962;52.538;13.266;2022-10-03T19:25:38;13.20;99.90
17687;DHT22;8962;52.538;13.266;2022-10-03T19:28:13;13.20;99.90
17687;DHT22;8962;52.538;13.266;2022-10-03T19:30:45;13.20;99.90
17687;DHT22;8962;52.538;13.266;2022-10-03T19:33:23;13.20;99.90
17687;DHT22;8962;52.538;13.266;2022-10-03T19:35:54;13.20;99.90
17687;DHT22;8962;52.538;13.266;2022-10-03T19:38:26;13.10;99.90
17687;DHT22;8962;52.538;13.266;2022-10-03T19:40:56;13.00;99.90
17687;DHT22;8962;52.538;13.266;2022-10-03T19:43:40;13.00;99.90
17687;DHT22;8962;52.538;13.266;2022-10-03T19:46:17;13.00;99.90
17687;DHT22;8962;52.538;13.266;2022-10-03T19:48:52;13.00;99.90
17687;DHT22;8962;52.538;13.266;2022-10-03T19:51:22;13.00;99.90
17687;DHT22;8962;52.538;13.266;2022-10-03T19:53:51;13.00;99.90
17687;DHT22;8962;52.538;13.266;2022-10-03T19:56:20;13.00;99.90
17687;DHT22;8962;52.538;13.266;2022-10-03T19:58:58;13.00;99.90
17687;DHT22;8962;52.538;13.266;2022-10-03T20:01:33;13.00;99.90
17687;DHT22;8962;52.538;13.266;2022-10-03T20:04:01;13.10;99.90
17687;DHT22;8962;52.538;13.266;2022-10-03T20:06:30;13.10;99.90
17687;DHT22;8962;52.538;13.266;2022-10-03T20:09:03;13.10;99.90
17687;DHT22;8962;52.538;13.266;2022-10-03T20:11:39;13.20;99.90
17687;DHT22;8962;52.538;13.266;2022-10-03T20:14:12;13.20;99.90
17687;DHT22;8962;52.538;13.266;2022-10-03T20:16:44;13.20;99.90
17687;DHT22;8962;52.538;13.266;2022-10-03T20:19:14;13.30;99.90